Time;durP1;ratioP1;P1;durP2;ratioP2;P2;SDS_P1;SDS_P2;PMS_P1;PMS_P2;Temp;Humidity;BMP_temperature;BMP_pressure;BME280_temperature;BME280_humidity;BME280_pressure;Samples;Min_cycle;Max_cycle;Signal;HPM_P1;HPM_P2
2023/03/09 00:02:09;;;;;;;;;;;12.60;97.00;;;13.09;64.71;96260.41;5049870;27;124158;-69
2023/03/09 00:04:36;;;;;;;;;;;12.70;97.00;;;13.10;64.67;96262.00;5044157;27;124526;-69
2023/03/09 00:07:03;;;;;;;;;;;12.70;97.00;;;13.11;64.69;96253.31;5043042;27;114575;-69
2023/03/09 00:09:29;;;;;;;;;;;12.70;97.00;;;13.12;64.68;96260.44;5045084;27;113707;-69
2023/03/09 00:11:55;;;;;;;;;;;12.70;97.00;;;13.13;64.97;96264.78;5048004;27;125254;-69
2023/03/09 00:14:22;;;;;;;;;;;12.70;97.00;;;13.13;64.88;96278.63;5046039;27;123136;-69
2023/03/09 00:16:48;;;;;;;;;;;12.70;97.10;;;13.12;64.96;96292.91;5048852;27;114555;-69
2023/03/09 00:19:20;;;;;;;;;;;12.70;97.10;;;13.08;65.50;96301.19;5048343;27;114654;-70
2023/03/09 00:21:51;;;;;;;;;;;12.60;97.30;;;13.04;65.55;96289.31;5055749;27;124377;-69
2023/03/09 00:24:20;;;;;;;;;;;12.60;97.40;;;13.01;65.82;96346.31;5061630;27;123993;-69
2023/03/09 00:26:52;;;;;;;;;;;12.60;97.60;;;12.98;66.32;96343.53;5049072;27;114206;-69
2023/03/09 00:29:18;;;;;;;;;;;12.50;97.80;;;12.93;66.28;96347.47;5033040;27;113860;-70
2023/03/09 00:31:45;;;;;;;;;;;12.50;97.90;;;12.88;66.27;96345.06;5040086;27;123241;-69
2023/03/09 00:34:13;;;;;;;;;;;12.50;98.00;;;12.87;66.81;96337.94;5050887;27;123847;-69
2023/03/09 00:36:39;;;;;;;;;;;12.50;98.10;;;12.86;66.60;96354.94;5047679;27;114049;-69
2023/03/09 00:39:06;;;;;;;;;;;12.50;98.10;;;12.84;66.68;96349.78;5052957;27;114361;-69
2023/03/09 00:41:33;;;;;;;;;;;12.40;98.10;;;12.83;67.05;96373.94;5048897;27;123865;-69
2023/03/09 00:44:01;;;;;;;;;;;12.50;98.20;;;12.86;66.87;96382.66;5051130;27;123956;-71
2023/03/09 00:46:28;;;;;;;;;;;12.40;98.30;;;12.82;66.96;96375.13;5053999;27;113826;-69
2023/03/09 00:48:55;;;;;;;;;;;12.50;98.30;;;12.82;67.18;96386.19;5050124;27;113795;-69
2023/03/09 00:51:21;;;;;;;;;;;12.40;98.30;;;12.83;67.02;96398.06;5053839;27;124518;-70
2023/03/09 00:53:48;;;;;;;;;;;12.50;98.30;;;12.82;67.14;96377.09;5050335;27;124605;-69
2023/03/09 00:56:25;;;;;;;;;;;12.40;98.30;;;12.80;67.25;96388.56;5050859;27;114478;-68
2023/03/09 00:58:53;;;;;;;;;;;12.40;98.30;;;12.77;66.75;96372.72;5049586;27;113564;-68
2023/03/09 01:01:19;;;;;;;;;;;12.40;98.10;;;12.76;66.25;96384.97;5051917;27;123674;-68
2023/03/09 01:03:46;;;;;;;;;;;12.40;97.90;;;12.76;65.78;96389.72;5041825;27;123878;-68
2023/03/09 01:06:13;;;;;;;;;;;12.40;97.60;;;12.74;65.33;96395.66;5050716;27;114147;-68
2023/03/09 01:08:40;;;;;;;;;;;12.40;97.40;;;12.73;64.87;96390.47;5051103;27;114888;-68
2023/03/09 01:11:08;;;;;;;;;;;12.30;97.10;;;12.69;63.77;96393.25;5071514;27;123339;-71
2023/03/09 01:13:35;;;;;;;;;;;12.30;96.50;;;12.64;63.90;96388.06;5055061;27;124195;-70
2023/03/09 01:16:02;;;;;;;;;;;12.30;96.50;;;12.61;63.75;96394.38;5055625;27;114026;-69
2023/03/09 01:18:28;;;;;;;;;;;12.30;96.40;;;12.58;62.76;96414.53;5052654;27;113070;-68
2023/03/09 01:20:54;;;;;;;;;;;12.20;95.80;;;12.51;62.65;96403.38;5051221;27;124592;-69
2023/03/09 01:23:21;;;;;;;;;;;12.10;95.70;;;12.47;62.33;96402.59;5050987;27;123599;-69
2023/03/09 01:25:47;;;;;;;;;;;12.10;95.50;;;12.41;61.71;96368.88;5044340;27;113372;-69
2023/03/09 01:28:13;;;;;;;;;;;12.10;95.20;;;12.35;61.26;96378.75;5056253;27;113570;-69
2023/03/09 01:30:40;;;;;;;;;;;12.00;94.90;;;12.30;61.16;96387.41;5043323;27;123542;-69
2023/03/09 01:33:06;;;;;;;;;;;12.00;94.70;;;12.26;60.72;96381.06;5046967;27;124368;-69
2023/03/09 01:35:33;;;;;;;;;;;11.90;94.50;;;12.24;60.57;96395.25;5067943;27;114439;-69
2023/03/09 01:37:59;;;;;;;;;;;11.90;94.50;;;12.22;60.72;96402.34;5052129;27;113831;-70
2023/03/09 01:40:27;;;;;;;;;;;11.90;94.50;;;12.22;60.94;96414.22;5048952;27;124199;-69
2023/03/09 01:42:58;;;;;;;;;;;11.90;94.60;;;12.17;60.93;96406.28;5052196;27;123955;-70
2023/03/09 01:45:24;;;;;;;;;;;11.80;94.50;;;12.14;61.21;96402.31;5055444;27;114413;-69
2023/03/09 01:47:51;;;;;;;;;;;11.80;94.60;;;12.16;61.46;96393.59;5052502;27;113656;-69
2023/03/09 01:50:23;;;;;;;;;;;11.80;94.70;;;12.15;61.46;96394.81;5050135;27;124595;-68
2023/03/09 01:52:51;;;;;;;;;;;11.80;94.90;;;12.09;61.60;96422.03;5050742;27;123871;-68
2023/03/09 01:55:24;;;;;;;;;;;11.80;95.00;;;12.11;61.93;96416.88;5048700;27;115311;-69
2023/03/09 01:58:00;;;;;;;;;;;11.70;95.00;;;12.09;61.96;96415.69;5053379;27;115138;-69
2023/03/09 02:00:26;;;;;;;;;;;11.70;95.00;;;12.05;62.02;96401.81;5052705;27;124000;-72
2023/03/09 02:03:06;;;;;;;;;;;11.70;95.10;;;12.04;61.92;96425.16;5053750;27;123379;-69
2023/03/09 02:05:36;;;;;;;;;;;11.70;95.10;;;12.01;61.81;96416.78;5048653;27;114457;-72
2023/03/09 02:08:03;;;;;;;;;;;11.70;95.10;;;11.98;62.27;96403.72;5047527;27;113969;-69
2023/03/09 02:10:36;;;;;;;;;;;11.60;95.10;;;11.99;61.80;96413.63;5053475;27;124956;-69
2023/03/09 02:13:07;;;;;;;;;;;11.60;95.10;;;11.97;61.92;96396.59;5048688;27;124014;-69
2023/03/09 02:15:33;;;;;;;;;;;11.60;95.00;;;11.93;61.59;96360.59;5048076;27;114711;-69
2023/03/09 02:17:59;;;;;;;;;;;11.60;94.90;;;11.92;61.37;96390.22;5050457;27;113987;-69
2023/03/09 02:20:37;;;;;;;;;;;11.50;94.80;;;11.89;61.28;96374.38;5043364;27;124233;-69
2023/03/09 02:23:09;;;;;;;;;;;11.50;94.70;;;11.88;61.28;96388.63;5034111;27;122315;-72
2023/03/09 02:25:42;;;;;;;;;;;11.50;94.60;;;11.85;60.96;96403.19;5041206;27;114148;-69
2023/03/09 02:28:09;;;;;;;;;;;11.50;94.60;;;11.82;61.22;96390.91;5051445;27;113087;-69
2023/03/09 02:30:39;;;;;;;;;;;11.40;94.40;;;11.82;61.07;96401.97;5034653;27;123407;-69
2023/03/09 02:33:09;;;;;;;;;;;11.50;94.40;;;11.80;60.58;96392.47;5048429;27;124248;-70
2023/03/09 02:35:35;;;;;;;;;;;11.40;94.30;;;11.79;60.74;96391.63;5048849;27;114116;-68
2023/03/09 02:38:02;;;;;;;;;;;11.40;94.20;;;11.79;60.31;96382.56;5048503;27;113724;-68
2023/03/09 02:40:35;;;;;;;;;;;11.40;94.20;;;11.79;60.69;96396.38;5051939;27;124364;-68
2023/03/09 02:43:03;;;;;;;;;;;11.40;94.10;;;11.77;60.13;96391.25;5036586;27;123831;-68
2023/03/09 02:45:30;;;;;;;;;;;11.40;94.10;;;11.77;60.25;96399.53;5048456;27;115038;-68
2023/03/09 02:47:57;;;;;;;;;;;11.40;94.00;;;11.79;60.09;96375.03;5045355;27;113915;-69
2023/03/09 02:50:24;;;;;;;;;;;11.40;94.00;;;11.78;60.16;96406.66;5044166;27;125306;-68
2023/03/09 02:52:51;;;;;;;;;;;11.40;94.00;;;11.79;60.03;96396.38;5036230;27;124433;-69
2023/03/09 02:55:17;;;;;;;;;;;11.40;94.00;;;11.79;60.33;96401.91;5046715;27;114203;-68
2023/03/09 02:57:45;;;;;;;;;;;11.40;94.00;;;11.79;60.48;96413.78;5042550;27;113871;-68
2023/03/09 03:00:14;;;;;;;;;;;11.40;94.00;;;11.80;60.42;96431.97;5045890;27;124114;-68
2023/03/09 03:02:40;;;;;;;;;;;11.40;94.10;;;11.79;60.36;96449.72;5047917;27;123441;-68
2023/03/09 03:05:07;;;;;;;;;;;11.40;94.10;;;11.79;60.83;96458.03;5044470;27;114815;-68
2023/03/09 03:07:34;;;;;;;;;;;11.40;94.20;;;11.80;61.38;96448.59;5053112;27;113290;-68
2023/03/09 03:10:00;;;;;;;;;;;11.40;94.40;;;11.81;61.19;96469.53;5044289;27;124870;-69
2023/03/09 03:12:26;;;;;;;;;;;11.40;94.50;;;11.81;61.42;96486.13;5043391;27;124534;-69
2023/03/09 03:14:53;;;;;;;;;;;11.40;94.60;;;11.80;61.58;96492.84;5041998;27;114661;-69
2023/03/09 03:17:19;;;;;;;;;;;11.40;94.70;;;11.79;61.70;96505.06;5043044;27;112618;-69
2023/03/09 03:19:45;;;;;;;;;;;11.40;94.90;;;11.80;62.18;96522.50;5041874;27;124273;-69
2023/03/09 03:22:15;;;;;;;;;;;11.40;95.00;;;11.80;62.07;96542.66;5049002;27;123808;-69
2023/03/09 03:24:41;;;;;;;;;;;11.50;95.10;;;11.80;61.93;96552.91;5045656;27;114222;-70
2023/03/09 03:27:07;;;;;;;;;;;11.40;95.20;;;11.80;62.75;96559.25;5054442;27;114731;-69
2023/03/09 03:29:34;;;;;;;;;;;11.40;95.30;;;11.81;62.92;96576.63;5044542;27;124508;-69
2023/03/09 03:32:00;;;;;;;;;;;11.40;95.50;;;11.80;63.14;96620.09;5043642;27;124133;-69
2023/03/09 03:34:26;;;;;;;;;;;11.40;95.60;;;11.80;63.53;96622.09;5048564;27;115127;-69
2023/03/09 03:36:53;;;;;;;;;;;11.40;95.70;;;11.78;63.58;96605.84;5050516;27;114548;-69
2023/03/09 03:39:19;;;;;;;;;;;11.40;95.80;;;11.78;63.70;96605.84;5048463;27;124183;-71
2023/03/09 03:41:45;;;;;;;;;;;11.40;95.80;;;11.78;63.34;96597.53;5048629;27;123738;-68
2023/03/09 03:44:12;;;;;;;;;;;11.40;95.80;;;11.77;63.44;96598.72;5050364;27;114125;-69
2023/03/09 03:46:38;;;;;;;;;;;11.40;95.70;;;11.73;62.77;96586.81;5048136;27;115465;-69
2023/03/09 03:49:05;;;;;;;;;;;11.40;95.40;;;11.69;62.08;96608.09;5048736;27;124179;-69
2023/03/09 03:51:31;;;;;;;;;;;11.40;95.00;;;11.65;61.44;96618.31;5048398;27;124345;-69
2023/03/09 03:53:57;;;;;;;;;;;11.30;94.80;;;11.61;61.44;96620.22;5048369;27;114714;-68
2023/03/09 03:56:24;;;;;;;;;;;11.20;94.60;;;11.58;61.58;96620.97;5052143;27;114308;-69
2023/03/09 03:58:50;;;;;;;;;;;11.20;94.60;;;11.54;61.40;96640.28;5046419;27;124258;-69
2023/03/09 04:01:16;;;;;;;;;;;11.20;94.60;;;11.54;61.39;96651.34;5033280;27;123069;-70
2023/03/09 04:03:43;;;;;;;;;;;11.20;94.60;;;11.52;61.18;96639.03;5051367;27;115003;-69
2023/03/09 04:06:09;;;;;;;;;;;11.20;94.50;;;11.52;61.37;96630.75;5041173;27;113761;-69
2023/03/09 04:08:35;;;;;;;;;;;11.20;94.60;;;11.50;61.13;96640.22;5034022;27;123224;-69
2023/03/09 04:11:06;;;;;;;;;;;11.10;94.50;;;11.50;61.43;96644.97;5036375;27;123600;-69
2023/03/09 04:13:32;;;;;;;;;;;11.10;94.50;;;11.48;61.33;96666.66;5047516;27;115232;-68
2023/03/09 04:15:59;;;;;;;;;;;11.10;94.60;;;11.45;61.44;96662.66;5051324;27;113039;-69
2023/03/09 04:18:27;;;;;;;;;;;11.10;94.60;;;11.45;61.46;96664.63;5042161;27;124194;-69
2023/03/09 04:20:53;;;;;;;;;;;11.10;94.60;;;11.43;61.78;96678.81;5049400;27;123807;-69
2023/03/09 04:23:20;;;;;;;;;;;11.10;94.60;;;11.45;61.38;96682.00;5046885;27;116098;-69
2023/03/09 04:26:01;;;;;;;;;;;11.10;94.60;;;11.47;61.38;96701.81;5035970;27;113846;-72
2023/03/09 04:28:27;;;;;;;;;;;11.10;94.70;;;11.50;61.25;96708.56;5065532;27;124241;-69
2023/03/09 04:30:54;;;;;;;;;;;11.10;94.60;;;11.46;61.34;96700.19;5051936;27;124610;-69
2023/03/09 04:33:20;;;;;;;;;;;11.10;94.50;;;11.45;61.03;96708.88;5048120;27;114163;-69
2023/03/09 04:35:47;;;;;;;;;;;11.10;94.50;;;11.46;61.38;96744.44;5049076;27;113516;-69
2023/03/09 04:38:14;;;;;;;;;;;11.10;94.40;;;11.46;61.46;96741.66;5050738;27;124839;-69
2023/03/09 04:40:40;;;;;;;;;;;11.10;94.40;;;11.47;60.91;96767.34;5042246;27;124567;-69
2023/03/09 04:43:07;;;;;;;;;;;11.10;94.30;;;11.48;60.73;96769.75;5050369;27;113524;-69
2023/03/09 04:45:33;;;;;;;;;;;11.10;94.30;;;11.47;61.00;96776.47;5044850;27;114197;-71
2023/03/09 04:48:00;;;;;;;;;;;11.10;94.20;;;11.48;60.36;96778.06;5047877;27;121280;-70
2023/03/09 04:50:26;;;;;;;;;;;11.10;94.00;;;11.46;60.50;96785.91;5055474;27;124081;-70
2023/03/09 04:52:55;;;;;;;;;;;11.10;93.80;;;11.46;60.12;96785.13;5056001;27;114371;-69
2023/03/09 04:55:22;;;;;;;;;;;11.10;93.80;;;11.47;60.03;96790.28;5052602;27;113622;-70
2023/03/09 04:57:48;;;;;;;;;;;11.10;93.80;;;11.48;60.26;96785.56;5034376;27;123201;-71
2023/03/09 05:00:16;;;;;;;;;;;11.10;93.80;;;11.50;59.45;96799.81;5037469;27;123354;-69
2023/03/09 05:02:42;;;;;;;;;;;11.10;93.60;;;11.49;59.57;96814.81;5050503;27;114234;-68
2023/03/09 05:05:09;;;;;;;;;;;11.10;93.50;;;11.47;59.52;96806.88;5051657;27;113838;-69
2023/03/09 05:07:36;;;;;;;;;;;11.10;93.40;;;11.46;59.22;96816.34;5047225;27;123870;-69
2023/03/09 05:10:03;;;;;;;;;;;11.10;93.30;;;11.43;59.46;96822.59;5052085;27;123616;-68
2023/03/09 05:12:31;;;;;;;;;;;11.10;93.20;;;11.44;59.28;96834.47;5054603;27;115268;-69
2023/03/09 05:14:58;;;;;;;;;;;11.10;93.10;;;11.40;59.24;96828.06;5052217;27;114625;-69
2023/03/09 05:17:24;;;;;;;;;;;11.10;93.10;;;11.41;59.28;96829.66;5049310;27;124455;-69
2023/03/09 05:19:51;;;;;;;;;;;11.10;93.00;;;11.43;58.64;96844.72;5033499;27;123860;-70
2023/03/09 05:22:17;;;;;;;;;;;11.00;92.90;;;11.43;58.86;96847.50;5051564;27;114533;-69
2023/03/09 05:24:44;;;;;;;;;;;11.10;92.90;;;11.46;58.69;96849.53;5033731;27;113318;-70
2023/03/09 05:27:13;;;;;;;;;;;11.10;92.90;;;11.48;58.48;96841.66;5051095;27;124017;-68
2023/03/09 05:29:41;;;;;;;;;;;11.10;92.90;;;11.53;58.70;96859.13;5041655;27;124633;-69
2023/03/09 05:32:07;;;;;;;;;;;11.10;92.90;;;11.55;58.30;96857.56;5050461;27;114440;-68
2023/03/09 05:34:34;;;;;;;;;;;11.20;92.80;;;11.56;58.54;96861.16;5050917;27;113485;-69
2023/03/09 05:37:01;;;;;;;;;;;11.10;92.80;;;11.56;58.44;96856.44;5047788;27;124604;-69
2023/03/09 05:39:27;;;;;;;;;;;11.10;92.70;;;11.57;58.13;96871.84;5035156;27;122366;-69
2023/03/09 05:41:54;;;;;;;;;;;11.10;92.70;;;11.57;58.13;96871.84;5050890;27;114507;-69
2023/03/09 05:44:20;;;;;;;;;;;11.20;92.70;;;11.60;58.47;96884.16;5053716;27;113016;-69
2023/03/09 05:46:46;;;;;;;;;;;11.20;92.70;;;11.61;58.39;96888.53;5048846;27;123997;-69
2023/03/09 05:49:13;;;;;;;;;;;11.20;92.70;;;11.61;58.09;96894.06;5050928;27;124585;-69
2023/03/09 05:51:39;;;;;;;;;;;11.20;92.90;;;11.61;58.53;96894.84;5052816;27;113602;-70
2023/03/09 05:54:06;;;;;;;;;;;11.90;92.90;;;11.63;58.22;96908.31;5051452;27;114084;-69
2023/03/09 05:56:32;;;;;;;;;;;11.20;92.70;;;11.65;58.62;96894.91;5049385;27;124733;-69
2023/03/09 05:58:59;;;;;;;;;;;11.30;92.80;;;11.67;58.32;96917.47;5050124;27;124327;-69
2023/03/09 06:01:27;;;;;;;;;;;11.30;92.70;;;11.68;58.27;96917.09;5052115;27;115252;-69
2023/03/09 06:03:55;;;;;;;;;;;11.30;92.60;;;11.70;58.43;96916.75;5044134;27;114868;-69
2023/03/09 06:06:22;;;;;;;;;;;11.30;92.60;;;11.73;58.13;96924.31;5062868;27;124741;-69
2023/03/09 06:08:48;;;;;;;;;;;11.30;92.60;;;11.74;57.95;96931.47;5047539;27;123877;-69
2023/03/09 06:11:15;;;;;;;;;;;11.40;92.60;;;11.77;57.93;96935.44;5049317;27;114304;-69
2023/03/09 06:13:41;;;;;;;;;;;11.40;92.60;;;11.77;58.17;96939.03;5051627;27;113759;-70
2023/03/09 06:16:12;;;;;;;;;;;11.40;92.50;;;11.78;57.94;96937.84;5044804;27;125031;-70
2023/03/09 06:18:38;;;;;;;;;;;11.40;92.50;;;11.81;57.96;96952.91;5066487;27;123529;-70
2023/03/09 06:21:05;;;;;;;;;;;11.40;92.50;;;11.82;58.06;96946.22;5043998;27;116813;-70
2023/03/09 06:23:35;;;;;;;;;;;11.40;92.40;;;11.83;57.62;96950.59;5046240;27;113753;-70
2023/03/09 06:26:04;;;;;;;;;;;11.40;92.40;;;11.87;57.57;96943.97;5049283;27;124311;-68
2023/03/09 06:28:30;;;;;;;;;;;11.40;92.40;;;11.90;58.06;96945.19;5026759;27;123472;-69
2023/03/09 06:30:58;;;;;;;;;;;11.50;92.40;;;11.94;57.79;96951.63;5036602;27;114538;-68
2023/03/09 06:33:25;;;;;;;;;;;11.50;92.40;;;11.98;57.49;96957.22;5048107;27;113732;-70
2023/03/09 06:35:52;;;;;;;;;;;11.60;92.40;;;12.02;57.68;96952.56;5040246;27;124607;-69
2023/03/09 06:38:19;;;;;;;;;;;11.60;92.40;;;12.05;57.75;96958.16;5041741;27;123928;-71
2023/03/09 06:40:48;;;;;;;;;;;11.60;92.40;;;12.09;57.38;96953.50;5043932;27;115207;-74
2023/03/09 06:43:17;;;;;;;;;;;12.50;92.80;;;12.13;57.61;96956.31;5044741;27;113772;-77
2023/03/09 06:45:45;;;;;;;;;;;11.60;92.40;;;12.18;57.19;96958.78;5046481;27;124343;-72
2023/03/09 06:48:11;;;;;;;;;;;11.70;92.40;;;12.21;57.29;96960.00;5045012;27;124039;-71
2023/03/09 06:50:37;;;;;;;;;;;11.80;92.40;;;12.22;57.28;96951.31;5045369;27;115039;-71
2023/03/09 06:53:04;;;;;;;;;;;11.80;92.40;;;12.25;57.00;96950.59;5050321;27;114914;-72
2023/03/09 06:55:30;;;;;;;;;;;11.80;92.30;;;12.27;57.40;96967.63;5043231;27;125751;-73
2023/03/09 06:57:57;;;;;;;;;;;11.80;92.30;;;12.30;57.20;96974.41;5050772;27;122887;-73
2023/03/09 07:00:23;;;;;;;;;;;11.80;92.30;;;12.33;57.00;96996.63;5042253;27;114139;-73
2023/03/09 07:02:51;;;;;;;;;;;11.80;92.30;;;12.32;56.93;96989.47;5045018;27;113569;-73
2023/03/09 07:05:18;;;;;;;;;;;11.80;92.20;;;12.32;57.19;96992.25;5045651;27;124149;-72
2023/03/09 07:07:45;;;;;;;;;;;11.80;92.20;;;12.31;57.08;96996.19;5042156;27;124613;-74
2023/03/09 07:10:11;;;;;;;;;;;11.80;92.20;;;12.32;57.28;97008.88;5043616;27;114109;-72
2023/03/09 07:12:38;;;;;;;;;;;11.80;92.20;;;12.33;57.14;97013.25;5049567;27;113780;-71
2023/03/09 07:15:05;;;;;;;;;;;11.90;92.20;;;12.33;57.20;97004.13;5052068;27;124261;-72
2023/03/09 07:18:09;;;;;;;;;;;11.80;92.20;;;12.40;57.14;97006.25;5053509;27;122850;-72
2023/03/09 07:20:39;;;;;;;;;;;11.90;92.30;;;12.46;56.91;97018.59;5045428;27;114576;-71
2023/03/09 07:23:07;;;;;;;;;;;11.90;92.30;;;12.53;56.86;97033.38;5040491;27;113982;-71
2023/03/09 07:25:35;;;;;;;;;;;12.00;92.60;;;12.61;56.91;97020.47;5047524;27;124442;-72
2023/03/09 07:28:20;;;;;;;;;;;12.00;92.20;;;12.66;56.52;97013.81;5052557;27;123037;-75
2023/03/09 07:30:46;;;;;;;;;;;12.10;92.20;;;12.67;56.48;96999.56;5046741;27;114010;-71
2023/03/09 07:33:13;;;;;;;;;;;12.20;92.10;;;12.70;56.28;97022.97;5050019;27;113708;-72
2023/03/09 07:35:40;;;;;;;;;;;12.20;92.10;;;12.73;56.22;97020.25;5040231;27;124211;-73
2023/03/09 07:38:06;;;;;;;;;;;12.20;91.90;;;12.73;56.01;97036.09;5041186;27;124713;-72
2023/03/09 07:40:32;;;;;;;;;;;12.20;91.80;;;12.76;55.91;97041.72;5041149;27;115950;-71
2023/03/09 07:42:59;;;;;;;;;;;12.20;91.70;;;12.83;55.71;97039.03;5047886;27;114655;-72
2023/03/09 07:45:25;;;;;;;;;;;12.30;91.70;;;12.90;55.63;97041.16;5046561;27;124195;-71
2023/03/09 07:47:51;;;;;;;;;;;12.30;91.50;;;12.92;55.16;97047.13;5046917;27;123639;-72
2023/03/09 07:50:18;;;;;;;;;;;12.40;91.50;;;12.93;55.08;97045.16;5046893;27;114484;-72
2023/03/09 07:52:45;;;;;;;;;;;12.50;91.40;;;12.95;55.00;97060.25;5043924;27;114098;-72
2023/03/09 07:55:12;;;;;;;;;;;12.40;91.10;;;12.99;54.41;97063.06;5033402;27;123084;-74
2023/03/09 07:57:40;;;;;;;;;;;12.50;90.90;;;13.05;53.92;97064.34;5064131;27;123403;-72
2023/03/09 08:00:12;;;;;;;;;;;12.60;90.70;;;13.15;53.24;97058.16;5055213;27;113347;-71
2023/03/09 08:02:40;;;;;;;;;;;12.60;90.40;;;13.22;53.08;97072.16;5041896;27;113932;-74
2023/03/09 08:05:08;;;;;;;;;;;12.70;90.20;;;13.32;52.47;97070.72;5049335;27;126087;-71
2023/03/09 08:07:35;;;;;;;;;;;12.80;90.00;;;13.42;52.18;97058.22;5043195;27;124755;-71
2023/03/09 08:10:02;;;;;;;;;;;12.90;89.80;;;13.51;52.17;97064.28;5042797;27;114729;-72
2023/03/09 08:12:28;;;;;;;;;;;12.90;89.50;;;13.54;52.11;97063.53;5045742;27;114134;-71
2023/03/09 08:14:54;;;;;;;;;;;13.00;89.40;;;13.53;51.87;97081.34;5032472;27;124078;-72
2023/03/09 08:17:21;;;;;;;;;;;13.00;88.80;;;13.55;51.89;97081.78;5047895;27;124302;-71
2023/03/09 08:19:47;;;;;;;;;;;13.10;89.00;;;13.63;51.78;97080.72;5044494;27;115678;-72
2023/03/09 08:22:16;;;;;;;;;;;13.10;88.80;;;13.68;51.45;97088.72;5048169;27;113880;-71
2023/03/09 08:24:42;;;;;;;;;;;13.20;88.50;;;13.73;51.50;97100.66;5046975;27;124260;-73
2023/03/09 08:27:09;;;;;;;;;;;13.20;88.40;;;13.76;51.33;97109.03;5031307;27;125369;-71
2023/03/09 08:29:37;;;;;;;;;;;13.30;88.40;;;13.81;50.82;97099.56;5043613;27;115469;-72
2023/03/09 08:32:07;;;;;;;;;;;13.30;87.70;;;13.79;51.08;97094.41;5046104;27;114915;-71
2023/03/09 08:34:33;;;;;;;;;;;13.30;87.70;;;13.81;50.83;97116.22;5046645;27;123978;-72
2023/03/09 08:37:00;;;;;;;;;;;13.30;87.50;;;13.82;50.92;97112.28;5046391;27;124173;-72
2023/03/09 08:39:26;;;;;;;;;;;13.30;87.30;;;13.82;50.97;97121.41;5047965;27;114962;-72
2023/03/09 08:41:52;;;;;;;;;;;13.40;87.60;;;13.82;50.97;97117.84;5050223;27;113760;-72
2023/03/09 08:44:19;;;;;;;;;;;13.40;87.50;;;13.80;50.86;97145.97;5048864;27;122913;-71
2023/03/09 08:46:45;;;;;;;;;;;13.40;88.10;;;13.81;50.83;97138.44;5039784;27;124114;-73
2023/03/09 08:49:11;;;;;;;;;;;13.40;87.30;;;13.79;50.91;97151.91;5042204;27;114780;-72
2023/03/09 08:51:38;;;;;;;;;;;13.30;87.10;;;13.76;51.08;97149.88;5046750;27;113749;-72
2023/03/09 08:54:04;;;;;;;;;;;13.30;87.20;;;13.77;51.35;97154.25;5049524;27;123752;-71
2023/03/09 08:56:30;;;;;;;;;;;13.40;87.50;;;13.80;51.36;97168.19;5049561;27;123966;-72
2023/03/09 08:58:57;;;;;;;;;;;13.40;87.70;;;13.86;51.37;97163.09;5051247;27;116583;-72
2023/03/09 09:01:23;;;;;;;;;;;13.40;87.70;;;13.87;51.05;97175.81;5044873;27;114034;-71
2023/03/09 09:03:49;;;;;;;;;;;13.40;87.40;;;13.88;51.35;97177.41;5048381;27;124177;-72
2023/03/09 09:06:16;;;;;;;;;;;13.40;87.60;;;13.91;51.41;97174.69;5053698;27;123850;-73
2023/03/09 09:08:43;;;;;;;;;;;13.50;88.00;;;13.93;51.38;97200.09;5041287;27;114634;-71
2023/03/09 09:11:11;;;;;;;;;;;13.50;87.80;;;13.87;51.77;97196.06;5039003;27;112886;-70
2023/03/09 09:13:38;;;;;;;;;;;13.50;88.10;;;13.81;52.36;97222.53;5051236;27;124357;-82
2023/03/09 09:16:05;;;;;;;;;;;13.40;88.50;;;13.73;53.13;97231.09;5052850;27;126331;-71
2023/03/09 09:18:32;;;;;;;;;;;13.40;89.50;;;13.62;53.67;97237.31;5053340;27;115127;-73
2023/03/09 09:21:03;;;;;;;;;;;13.30;90.10;;;13.52;54.72;97243.47;5044079;27;114897;-72
2023/03/09 09:23:31;;;;;;;;;;;13.20;90.60;;;13.40;55.17;97227.78;5033838;27;124110;-73
2023/03/09 09:25:57;;;;;;;;;;;13.10;90.80;;;13.31;55.87;97237.53;5050232;27;124185;-72
2023/03/09 09:28:24;;;;;;;;;;;13.00;91.10;;;13.23;56.01;97245.69;5046386;27;114053;-71
2023/03/09 09:30:55;;;;;;;;;;;12.90;91.20;;;13.21;56.55;97245.25;5051127;27;113822;-73
2023/03/09 09:33:22;;;;;;;;;;;12.90;91.50;;;13.23;56.73;97242.13;5047145;27;123573;-71
2023/03/09 09:36:00;;;;;;;;;;;12.80;91.70;;;13.28;56.88;97244.63;5051978;27;123908;-71
2023/03/09 09:38:28;;;;;;;;;;;12.90;92.00;;;13.27;56.99;97237.47;5047352;27;114561;-71
2023/03/09 09:40:55;;;;;;;;;;;12.80;92.10;;;13.27;57.00;97243.00;5030715;28;113467;-71
2023/03/09 09:43:23;;;;;;;;;;;12.80;92.00;;;13.30;57.08;97235.91;5063842;27;124344;-71
2023/03/09 09:45:51;;;;;;;;;;;12.90;92.10;;;13.26;56.58;97236.66;5047862;27;123928;-70
2023/03/09 09:48:18;;;;;;;;;;;12.80;92.00;;;13.25;56.37;97240.59;5048137;27;114347;-72
2023/03/09 09:51:10;;;;;;;;;;;12.80;91.80;;;13.26;56.35;97247.75;5012374;27;112836;-71
2023/03/09 09:53:45;;;;;;;;;;;12.80;91.90;;;13.29;56.41;97264.84;5049179;27;124411;-70
2023/03/09 09:56:18;;;;;;;;;;;12.80;91.80;;;13.30;56.50;97253.38;5048957;27;123846;-72
2023/03/09 09:58:54;;;;;;;;;;;12.90;91.90;;;13.31;56.26;97276.38;4988408;28;113824;-71
2023/03/09 10:01:39;;;;;;;;;;;12.90;91.70;;;13.31;56.17;97276.38;4982608;28;113721;-71
2023/03/09 10:04:10;;;;;;;;;;;12.90;91.70;;;13.35;56.28;97271.69;4984331;28;124199;-71
2023/03/09 10:06:37;;;;;;;;;;;12.90;91.70;;;13.40;56.01;97271.38;4984799;28;123837;-72
2023/03/09 10:09:11;;;;;;;;;;;12.90;91.60;;;13.43;55.40;97278.97;4980122;28;115277;-72
2023/03/09 10:11:43;;;;;;;;;;;13.00;91.50;;;13.43;55.43;97284.50;4974122;28;114221;-72
2023/03/09 10:14:31;;;;;;;;;;;13.00;91.30;;;13.41;55.31;97296.00;4990848;28;124175;-72
2023/03/09 10:17:00;;;;;;;;;;;13.00;91.20;;;13.39;55.22;97267.81;5007322;28;124217;-72
2023/03/09 10:19:32;;;;;;;;;;;13.00;91.20;;;13.39;55.18;97290.00;5001344;28;114510;-72
2023/03/09 10:22:01;;;;;;;;;;;13.00;91.10;;;13.40;54.91;97296.34;4973015;28;113062;-72
2023/03/09 10:24:38;;;;;;;;;;;13.00;91.00;;;13.40;54.88;97286.03;4988192;28;125201;-72
2023/03/09 10:27:11;;;;;;;;;;;13.00;91.00;;;13.43;55.26;97292.84;5009412;28;123766;-72
2023/03/09 10:29:52;;;;;;;;;;;13.00;91.10;;;13.48;55.09;97331.38;4986238;28;114094;-72
2023/03/09 10:32:27;;;;;;;;;;;13.10;91.20;;;13.50;55.11;97298.53;4991912;28;113749;-72
2023/03/09 10:34:59;;;;;;;;;;;13.10;91.10;;;13.54;55.13;97315.22;4961889;28;124199;-72
2023/03/09 10:37:34;;;;;;;;;;;13.10;91.10;;;13.57;55.13;97301.44;5049153;27;124055;-72
2023/03/09 10:40:08;;;;;;;;;;;13.10;91.10;;;13.60;55.03;97286.03;5032064;27;114029;-71
2023/03/09 10:42:36;;;;;;;;;;;13.20;91.20;;;13.67;55.29;97292.50;5051546;27;113630;-72
2023/03/09 10:45:22;;;;;;;;;;;13.20;91.30;;;13.76;54.86;97285.91;5045710;27;123349;-72
2023/03/09 10:48:18;;;;;;;;;;;13.30;91.10;;;13.89;54.26;97290.09;5065092;27;124354;-71
2023/03/09 10:51:04;;;;;;;;;;;13.40;91.00;;;13.92;54.11;97283.78;5049661;27;114476;-73
2023/03/09 10:53:48;;;;;;;;;;;13.40;90.70;;;13.96;53.64;97276.31;5049483;27;113909;-73
2023/03/09 10:56:21;;;;;;;;;;;13.50;90.40;;;13.98;53.01;97287.84;5052395;27;124738;-73
2023/03/09 10:59:03;;;;;;;;;;;13.50;90.20;;;14.01;52.88;97281.53;5049928;27;124137;-72
2023/03/09 11:01:29;;;;;;;;;;;13.50;90.10;;;14.05;52.83;97276.03;5053131;27;114438;-72
2023/03/09 11:03:55;;;;;;;;;;;13.60;90.00;;;14.13;52.78;97261.91;5060707;27;114241;-72
2023/03/09 11:06:28;;;;;;;;;;;13.70;90.00;;;14.26;51.83;97287.47;5049267;27;123673;-72
2023/03/09 11:09:04;;;;;;;;;;;13.80;89.10;;;14.33;51.29;97262.59;5047758;27;124224;-71
2023/03/09 11:11:30;;;;;;;;;;;13.90;88.30;;;14.42;51.05;97270.63;5027284;28;114522;-73
2023/03/09 11:13:57;;;;;;;;;;;13.90;87.80;;;14.49;50.57;97273.53;5023450;27;112703;-71
2023/03/09 11:16:29;;;;;;;;;;;14.00;87.50;;;14.57;50.20;97250.25;5033300;27;124338;-71